Kezdőlap
METAR-TAF:

METAR-TAF

Repülőterek :

Vannes, Franciaország

földrajzi szélesség: 47-43-19N, földrajzi hosszúság: 2-43-41W, magasság: 130 m

Jelenlegi meteorológiai megfigyelések

A jelentés 34 perccel ezelõtt készült, 08:00 UTC
Észak-északkeleti szél 9 kt
Hőmérséklet 1°C
Páratartalom 93%
Légköri nyomás 1045 hPa
Látótávolság 10 km, vagy több
felhőtlen 1500 m magasságban, és nincs gomolyfelhõ

METAR: LFRV 200800Z AUTO 03009KT CAVOK 01/M00 Q1045

Idő: 09:34 (08:34 UTC)


TAF: hiányzik

Meteorológiai megfigyelések és előrejelzések több, mint 4000 repülőtéren (METAR és TAF jelentéseket).

A térképen piros és sárga pontok jelzik az elérhető meteorológiai állomásokat.

Mozgassa az egeret a pont fölött, hogy megjelenjen az állomás neve.

Azután kattintson az időjárási megfigyelések és előrejelzések megtekintéséhez.

A térkép megváltoztatása: kattintson a fekete keresztel jelölt zöld gombra ráközelítéshez, a vonallal jelölt zöld gombra távolításhoz, vagy a zöld nyilakra a szomszédos térképek eléréséhez.


METAR-TAF: